sensor_id;sensor_type;location;lat;lon;timestamp;P1;durP1;ratioP1;P2;durP2;ratioP2
7233;SDS011;3658;47.992;10.158;2023-07-24T00:00:54;2.97;;;2.63;;
7233;SDS011;3658;47.992;10.158;2023-07-24T00:03:21;3.50;;;3.20;;
7233;SDS011;3658;47.992;10.158;2023-07-24T00:05:48;3.83;;;3.10;;
7233;SDS011;3658;47.992;10.158;2023-07-24T00:08:16;3.87;;;3.33;;
7233;SDS011;3658;47.992;10.158;2023-07-24T00:10:43;4.00;;;3.20;;
7233;SDS011;3658;47.992;10.158;2023-07-24T00:13:10;3.60;;;2.90;;
7233;SDS011;3658;47.992;10.158;2023-07-24T00:15:38;3.00;;;2.63;;
7233;SDS011;3658;47.992;10.158;2023-07-24T00:18:05;3.60;;;2.87;;
7233;SDS011;3658;47.992;10.158;2023-07-24T00:20:31;4.07;;;3.00;;
7233;SDS011;3658;47.992;10.158;2023-07-24T00:22:58;3.67;;;3.20;;
7233;SDS011;3658;47.992;10.158;2023-07-24T00:25:26;4.33;;;3.20;;
7233;SDS011;3658;47.992;10.158;2023-07-24T00:27:53;3.63;;;3.07;;
7233;SDS011;3658;47.992;10.158;2023-07-24T00:30:20;3.63;;;3.33;;
7233;SDS011;3658;47.992;10.158;2023-07-24T00:32:47;3.97;;;3.23;;
7233;SDS011;3658;47.992;10.158;2023-07-24T00:35:13;3.83;;;3.20;;
7233;SDS011;3658;47.992;10.158;2023-07-24T00:37:40;4.23;;;3.33;;
7233;SDS011;3658;47.992;10.158;2023-07-24T00:40:07;3.77;;;3.37;;
7233;SDS011;3658;47.992;10.158;2023-07-24T00:42:36;3.83;;;2.90;;
7233;SDS011;3658;47.992;10.158;2023-07-24T00:45:03;3.77;;;2.97;;
7233;SDS011;3658;47.992;10.158;2023-07-24T00:47:31;3.37;;;2.70;;
7233;SDS011;3658;47.992;10.158;2023-07-24T00:49:58;4.13;;;3.23;;
7233;SDS011;3658;47.992;10.158;2023-07-24T00:52:25;3.53;;;2.90;;
7233;SDS011;3658;47.992;10.158;2023-07-24T00:54:52;3.60;;;3.20;;
7233;SDS011;3658;47.992;10.158;2023-07-24T00:57:19;3.03;;;2.73;;
7233;SDS011;3658;47.992;10.158;2023-07-24T00:59:48;3.17;;;2.87;;
7233;SDS011;3658;47.992;10.158;2023-07-24T01:02:15;3.13;;;2.83;;
7233;SDS011;3658;47.992;10.158;2023-07-24T01:04:41;4.17;;;3.50;;
7233;SDS011;3658;47.992;10.158;2023-07-24T01:07:08;3.53;;;3.00;;
7233;SDS011;3658;47.992;10.158;2023-07-24T01:09:35;3.50;;;3.10;;
7233;SDS011;3658;47.992;10.158;2023-07-24T01:12:03;4.23;;;3.23;;
7233;SDS011;3658;47.992;10.158;2023-07-24T01:14:38;3.47;;;3.07;;
7233;SDS011;3658;47.992;10.158;2023-07-24T01:17:13;3.13;;;2.83;;
7233;SDS011;3658;47.992;10.158;2023-07-24T01:19:43;3.70;;;3.00;;
7233;SDS011;3658;47.992;10.158;2023-07-24T01:22:15;3.83;;;3.30;;
7233;SDS011;3658;47.992;10.158;2023-07-24T01:24:57;3.87;;;3.10;;
7233;SDS011;3658;47.992;10.158;2023-07-24T01:27:31;3.30;;;3.00;;
7233;SDS011;3658;47.992;10.158;2023-07-24T01:29:58;2.83;;;2.53;;
7233;SDS011;3658;47.992;10.158;2023-07-24T01:32:25;3.60;;;2.97;;
7233;SDS011;3658;47.992;10.158;2023-07-24T01:34:52;3.80;;;3.20;;
7233;SDS011;3658;47.992;10.158;2023-07-24T01:37:19;3.70;;;3.00;;
7233;SDS011;3658;47.992;10.158;2023-07-24T01:39:48;3.70;;;2.97;;
7233;SDS011;3658;47.992;10.158;2023-07-24T01:42:17;3.53;;;3.07;;
7233;SDS011;3658;47.992;10.158;2023-07-24T01:44:46;3.57;;;3.23;;
7233;SDS011;3658;47.992;10.158;2023-07-24T01:47:17;3.60;;;3.30;;
7233;SDS011;3658;47.992;10.158;2023-07-24T01:49:44;3.60;;;3.00;;
7233;SDS011;3658;47.992;10.158;2023-07-24T01:52:11;3.10;;;2.80;;
7233;SDS011;3658;47.992;10.158;2023-07-24T01:54:38;3.23;;;2.93;;
7233;SDS011;3658;47.992;10.158;2023-07-24T01:57:06;3.13;;;2.60;;
7233;SDS011;3658;47.992;10.158;2023-07-24T01:59:33;2.53;;;2.20;;
7233;SDS011;3658;47.992;10.158;2023-07-24T02:02:01;3.57;;;2.80;;
7233;SDS011;3658;47.992;10.158;2023-07-24T02:04:28;3.33;;;2.87;;
7233;SDS011;3658;47.992;10.158;2023-07-24T02:06:55;3.20;;;2.70;;
7233;SDS011;3658;47.992;10.158;2023-07-24T02:09:21;4.40;;;3.30;;
7233;SDS011;3658;47.992;10.158;2023-07-24T02:11:48;3.67;;;3.27;;
7233;SDS011;3658;47.992;10.158;2023-07-24T02:14:17;3.77;;;2.93;;
7233;SDS011;3658;47.992;10.158;2023-07-24T02:16:45;4.03;;;3.20;;
7233;SDS011;3658;47.992;10.158;2023-07-24T02:19:13;3.13;;;2.83;;
7233;SDS011;3658;47.992;10.158;2023-07-24T02:21:40;3.23;;;2.70;;
7233;SDS011;3658;47.992;10.158;2023-07-24T02:24:07;3.37;;;3.00;;
7233;SDS011;3658;47.992;10.158;2023-07-24T02:26:33;4.30;;;3.30;;
7233;SDS011;3658;47.992;10.158;2023-07-24T02:29:00;3.27;;;2.97;;
7233;SDS011;3658;47.992;10.158;2023-07-24T02:31:27;4.47;;;3.50;;
7233;SDS011;3658;47.992;10.158;2023-07-24T02:33:54;3.80;;;3.20;;
7233;SDS011;3658;47.992;10.158;2023-07-24T02:36:22;3.47;;;3.10;;
7233;SDS011;3658;47.992;10.158;2023-07-24T02:38:49;3.63;;;2.93;;
7233;SDS011;3658;47.992;10.158;2023-07-24T02:41:16;3.20;;;2.87;;
7233;SDS011;3658;47.992;10.158;2023-07-24T02:43:43;3.40;;;3.10;;
7233;SDS011;3658;47.992;10.158;2023-07-24T02:46:09;3.70;;;3.10;;
7233;SDS011;3658;47.992;10.158;2023-07-24T02:48:36;3.67;;;2.97;;
7233;SDS011;3658;47.992;10.158;2023-07-24T02:51:03;3.93;;;3.17;;
7233;SDS011;3658;47.992;10.158;2023-07-24T02:53:31;3.80;;;3.10;;
7233;SDS011;3658;47.992;10.158;2023-07-24T02:55:58;3.30;;;3.00;;
7233;SDS011;3658;47.992;10.158;2023-07-24T02:58:26;3.80;;;3.03;;
7233;SDS011;3658;47.992;10.158;2023-07-24T03:00:53;3.57;;;3.00;;
7233;SDS011;3658;47.992;10.158;2023-07-24T03:03:22;3.77;;;3.03;;
7233;SDS011;3658;47.992;10.158;2023-07-24T03:05:48;3.17;;;2.77;;
7233;SDS011;3658;47.992;10.158;2023-07-24T03:08:15;4.50;;;3.40;;
7233;SDS011;3658;47.992;10.158;2023-07-24T03:10:43;4.30;;;3.40;;
7233;SDS011;3658;47.992;10.158;2023-07-24T03:13:10;3.47;;;3.00;;
7233;SDS011;3658;47.992;10.158;2023-07-24T03:15:37;3.57;;;3.20;;
7233;SDS011;3658;47.992;10.158;2023-07-24T03:18:03;3.50;;;3.10;;
7233;SDS011;3658;47.992;10.158;2023-07-24T03:20:30;3.93;;;3.20;;
7233;SDS011;3658;47.992;10.158;2023-07-24T03:22:57;3.40;;;2.97;;
7233;SDS011;3658;47.992;10.158;2023-07-24T03:25:23;3.13;;;2.83;;
7233;SDS011;3658;47.992;10.158;2023-07-24T03:27:51;3.67;;;3.27;;
7233;SDS011;3658;47.992;10.158;2023-07-24T03:33:39;3.30;;;2.77;;
7233;SDS011;3658;47.992;10.158;2023-07-24T03:36:06;3.63;;;2.90;;
7233;SDS011;3658;47.992;10.158;2023-07-24T03:38:33;3.93;;;3.30;;
7233;SDS011;3658;47.992;10.158;2023-07-24T03:41:00;3.80;;;3.17;;
7233;SDS011;3658;47.992;10.158;2023-07-24T03:43:28;3.83;;;3.30;;
7233;SDS011;3658;47.992;10.158;2023-07-24T03:45:55;4.00;;;3.10;;
7233;SDS011;3658;47.992;10.158;2023-07-24T03:48:21;3.03;;;2.73;;
7233;SDS011;3658;47.992;10.158;2023-07-24T03:50:49;2.87;;;2.57;;
7233;SDS011;3658;47.992;10.158;2023-07-24T03:53:16;2.80;;;2.47;;
7233;SDS011;3658;47.992;10.158;2023-07-24T03:55:43;3.20;;;2.87;;
7233;SDS011;3658;47.992;10.158;2023-07-24T03:58:10;3.37;;;3.07;;
7233;SDS011;3658;47.992;10.158;2023-07-24T04:00:38;3.77;;;2.83;;
7233;SDS011;3658;47.992;10.158;2023-07-24T04:03:05;3.83;;;3.00;;
7233;SDS011;3658;47.992;10.158;2023-07-24T04:05:33;3.30;;;2.73;;
7233;SDS011;3658;47.992;10.158;2023-07-24T04:08:00;3.67;;;3.20;;
7233;SDS011;3658;47.992;10.158;2023-07-24T04:10:27;2.57;;;2.37;;
7233;SDS011;3658;47.992;10.158;2023-07-24T04:12:55;3.30;;;2.83;;
7233;SDS011;3658;47.992;10.158;2023-07-24T04:15:22;3.10;;;2.80;;
7233;SDS011;3658;47.992;10.158;2023-07-24T04:17:51;3.07;;;2.77;;
7233;SDS011;3658;47.992;10.158;2023-07-24T04:20:17;3.63;;;2.97;;
7233;SDS011;3658;47.992;10.158;2023-07-24T04:22:44;3.00;;;2.50;;
7233;SDS011;3658;47.992;10.158;2023-07-24T04:25:11;3.00;;;2.70;;
7233;SDS011;3658;47.992;10.158;2023-07-24T04:27:38;3.60;;;2.80;;
7233;SDS011;3658;47.992;10.158;2023-07-24T04:30:05;3.17;;;2.70;;
7233;SDS011;3658;47.992;10.158;2023-07-24T04:32:33;2.73;;;2.43;;
7233;SDS011;3658;47.992;10.158;2023-07-24T04:35:01;3.63;;;2.67;;
7233;SDS011;3658;47.992;10.158;2023-07-24T04:37:28;3.33;;;2.93;;
7233;SDS011;3658;47.992;10.158;2023-07-24T04:39:54;3.10;;;2.40;;
7233;SDS011;3658;47.992;10.158;2023-07-24T04:42:21;3.30;;;2.87;;
7233;SDS011;3658;47.992;10.158;2023-07-24T04:44:48;3.20;;;2.90;;
7233;SDS011;3658;47.992;10.158;2023-07-24T04:47:16;2.97;;;2.70;;
7233;SDS011;3658;47.992;10.158;2023-07-24T04:49:43;3.80;;;3.20;;
7233;SDS011;3658;47.992;10.158;2023-07-24T04:52:11;3.80;;;3.00;;
7233;SDS011;3658;47.992;10.158;2023-07-24T04:54:38;9.53;;;7.10;;
7233;SDS011;3658;47.992;10.158;2023-07-24T04:57:05;10.93;;;6.77;;
7233;SDS011;3658;47.992;10.158;2023-07-24T04:59:32;9.90;;;7.00;;
7233;SDS011;3658;47.992;10.158;2023-07-24T05:02:00;9.90;;;7.67;;
7233;SDS011;3658;47.992;10.158;2023-07-24T05:04:27;12.47;;;8.20;;
7233;SDS011;3658;47.992;10.158;2023-07-24T05:06:53;10.40;;;8.37;;
7233;SDS011;3658;47.992;10.158;2023-07-24T05:09:21;12.40;;;7.67;;
7233;SDS011;3658;47.992;10.158;2023-07-24T05:11:48;10.90;;;7.70;;
7233;SDS011;3658;47.992;10.158;2023-07-24T05:14:15;10.70;;;7.73;;
7233;SDS011;3658;47.992;10.158;2023-07-24T05:16:42;12.30;;;7.37;;
7233;SDS011;3658;47.992;10.158;2023-07-24T05:19:09;9.83;;;7.53;;
7233;SDS011;3658;47.992;10.158;2023-07-24T05:21:35;10.73;;;7.93;;
7233;SDS011;3658;47.992;10.158;2023-07-24T05:24:02;10.73;;;8.80;;
7233;SDS011;3658;47.992;10.158;2023-07-24T05:26:31;13.63;;;10.37;;
7233;SDS011;3658;47.992;10.158;2023-07-24T05:28:58;10.63;;;8.60;;
7233;SDS011;3658;47.992;10.158;2023-07-24T05:31:24;14.03;;;9.37;;
7233;SDS011;3658;47.992;10.158;2023-07-24T05:33:51;12.00;;;8.70;;
7233;SDS011;3658;47.992;10.158;2023-07-24T05:36:18;9.07;;;7.43;;
7233;SDS011;3658;47.992;10.158;2023-07-24T05:38:45;10.67;;;8.27;;
7233;SDS011;3658;47.992;10.158;2023-07-24T05:41:11;11.43;;;7.63;;
7233;SDS011;3658;47.992;10.158;2023-07-24T05:43:39;10.27;;;7.13;;
7233;SDS011;3658;47.992;10.158;2023-07-24T05:46:06;9.80;;;7.63;;
7233;SDS011;3658;47.992;10.158;2023-07-24T05:48:33;11.80;;;7.47;;
7233;SDS011;3658;47.992;10.158;2023-07-24T05:51:00;11.50;;;7.17;;
7233;SDS011;3658;47.992;10.158;2023-07-24T05:53:26;13.37;;;7.43;;
7233;SDS011;3658;47.992;10.158;2023-07-24T05:55:57;10.30;;;7.73;;
7233;SDS011;3658;47.992;10.158;2023-07-24T05:58:24;10.87;;;7.50;;
7233;SDS011;3658;47.992;10.158;2023-07-24T06:00:53;10.10;;;7.83;;
7233;SDS011;3658;47.992;10.158;2023-07-24T06:03:20;12.37;;;7.63;;
7233;SDS011;3658;47.992;10.158;2023-07-24T06:05:50;10.83;;;8.30;;
7233;SDS011;3658;47.992;10.158;2023-07-24T06:08:17;10.73;;;7.50;;
7233;SDS011;3658;47.992;10.158;2023-07-24T06:10:43;10.80;;;7.60;;
7233;SDS011;3658;47.992;10.158;2023-07-24T06:13:11;9.43;;;7.63;;
7233;SDS011;3658;47.992;10.158;2023-07-24T06:15:38;11.53;;;7.83;;
7233;SDS011;3658;47.992;10.158;2023-07-24T06:18:06;8.13;;;6.73;;
7233;SDS011;3658;47.992;10.158;2023-07-24T06:20:33;8.37;;;6.90;;
7233;SDS011;3658;47.992;10.158;2023-07-24T06:23:00;10.97;;;7.57;;
7233;SDS011;3658;47.992;10.158;2023-07-24T06:25:28;8.40;;;7.20;;
7233;SDS011;3658;47.992;10.158;2023-07-24T06:27:55;7.87;;;6.80;;
7233;SDS011;3658;47.992;10.158;2023-07-24T06:30:22;9.50;;;7.03;;
7233;SDS011;3658;47.992;10.158;2023-07-24T06:32:49;11.70;;;6.93;;
7233;SDS011;3658;47.992;10.158;2023-07-24T06:35:17;7.77;;;6.43;;
7233;SDS011;3658;47.992;10.158;2023-07-24T06:37:44;11.77;;;7.67;;
7233;SDS011;3658;47.992;10.158;2023-07-24T06:40:11;9.07;;;6.87;;
7233;SDS011;3658;47.992;10.158;2023-07-24T06:42:38;8.30;;;6.67;;
7233;SDS011;3658;47.992;10.158;2023-07-24T06:45:05;11.63;;;7.43;;
7233;SDS011;3658;47.992;10.158;2023-07-24T06:47:33;9.23;;;6.40;;
7233;SDS011;3658;47.992;10.158;2023-07-24T06:49:59;8.17;;;6.27;;
7233;SDS011;3658;47.992;10.158;2023-07-24T06:52:28;10.60;;;5.93;;
7233;SDS011;3658;47.992;10.158;2023-07-24T06:54:55;8.97;;;6.33;;
7233;SDS011;3658;47.992;10.158;2023-07-24T06:57:23;8.07;;;6.20;;
7233;SDS011;3658;47.992;10.158;2023-07-24T06:59:50;9.10;;;6.30;;
7233;SDS011;3658;47.992;10.158;2023-07-24T07:02:17;9.13;;;6.63;;
7233;SDS011;3658;47.992;10.158;2023-07-24T07:04:44;9.77;;;6.37;;
7233;SDS011;3658;47.992;10.158;2023-07-24T07:07:10;8.87;;;6.20;;
7233;SDS011;3658;47.992;10.158;2023-07-24T07:09:38;10.33;;;6.20;;
7233;SDS011;3658;47.992;10.158;2023-07-24T07:12:06;9.10;;;5.93;;
7233;SDS011;3658;47.992;10.158;2023-07-24T07:14:33;8.37;;;6.40;;
7233;SDS011;3658;47.992;10.158;2023-07-24T07:17:00;8.03;;;5.70;;
7233;SDS011;3658;47.992;10.158;2023-07-24T07:19:27;8.07;;;6.20;;
7233;SDS011;3658;47.992;10.158;2023-07-24T07:21:54;13.60;;;5.97;;
7233;SDS011;3658;47.992;10.158;2023-07-24T07:24:20;9.43;;;6.43;;
7233;SDS011;3658;47.992;10.158;2023-07-24T07:26:48;9.00;;;5.83;;
7233;SDS011;3658;47.992;10.158;2023-07-24T07:29:15;9.57;;;6.23;;
7233;SDS011;3658;47.992;10.158;2023-07-24T07:31:42;9.20;;;6.47;;
7233;SDS011;3658;47.992;10.158;2023-07-24T07:34:09;8.30;;;6.10;;
7233;SDS011;3658;47.992;10.158;2023-07-24T07:36:35;7.83;;;5.63;;
7233;SDS011;3658;47.992;10.158;2023-07-24T07:39:02;7.67;;;5.87;;
7233;SDS011;3658;47.992;10.158;2023-07-24T07:41:29;9.60;;;5.90;;
7233;SDS011;3658;47.992;10.158;2023-07-24T07:43:57;6.53;;;5.43;;
7233;SDS011;3658;47.992;10.158;2023-07-24T07:46:24;7.20;;;5.30;;
7233;SDS011;3658;47.992;10.158;2023-07-24T07:48:51;6.30;;;4.93;;
7233;SDS011;3658;47.992;10.158;2023-07-24T07:51:18;7.30;;;5.53;;
7233;SDS011;3658;47.992;10.158;2023-07-24T07:53:45;7.37;;;5.57;;
7233;SDS011;3658;47.992;10.158;2023-07-24T07:56:12;7.50;;;5.23;;
7233;SDS011;3658;47.992;10.158;2023-07-24T07:58:38;6.13;;;4.77;;
7233;SDS011;3658;47.992;10.158;2023-07-24T08:01:07;7.60;;;5.43;;
7233;SDS011;3658;47.992;10.158;2023-07-24T08:03:34;6.47;;;4.83;;
7233;SDS011;3658;47.992;10.158;2023-07-24T08:06:01;8.43;;;5.37;;
7233;SDS011;3658;47.992;10.158;2023-07-24T08:08:28;7.83;;;4.80;;
7233;SDS011;3658;47.992;10.158;2023-07-24T08:10:55;7.53;;;5.20;;
7233;SDS011;3658;47.992;10.158;2023-07-24T08:13:22;6.23;;;4.60;;
7233;SDS011;3658;47.992;10.158;2023-07-24T08:15:49;7.70;;;5.10;;
7233;SDS011;3658;47.992;10.158;2023-07-24T08:18:17;6.00;;;4.97;;
7233;SDS011;3658;47.992;10.158;2023-07-24T08:20:44;6.40;;;4.60;;
7233;SDS011;3658;47.992;10.158;2023-07-24T08:23:10;5.83;;;4.70;;
7233;SDS011;3658;47.992;10.158;2023-07-24T08:25:37;7.47;;;4.37;;
7233;SDS011;3658;47.992;10.158;2023-07-24T08:28:04;4.70;;;4.03;;
7233;SDS011;3658;47.992;10.158;2023-07-24T08:30:31;5.03;;;4.03;;
7233;SDS011;3658;47.992;10.158;2023-07-24T08:32:57;6.57;;;4.43;;
7233;SDS011;3658;47.992;10.158;2023-07-24T08:35:26;5.90;;;4.37;;
7233;SDS011;3658;47.992;10.158;2023-07-24T08:37:53;5.57;;;4.03;;
7233;SDS011;3658;47.992;10.158;2023-07-24T08:40:20;6.37;;;5.03;;
7233;SDS011;3658;47.992;10.158;2023-07-24T08:42:47;9.13;;;4.60;;
7233;SDS011;3658;47.992;10.158;2023-07-24T08:45:15;5.43;;;4.43;;
7233;SDS011;3658;47.992;10.158;2023-07-24T08:47:43;9.83;;;4.67;;
7233;SDS011;3658;47.992;10.158;2023-07-24T08:50:11;6.60;;;4.87;;
7233;SDS011;3658;47.992;10.158;2023-07-24T08:52:41;6.13;;;4.77;;
7233;SDS011;3658;47.992;10.158;2023-07-24T08:55:09;8.77;;;4.30;;
7233;SDS011;3658;47.992;10.158;2023-07-24T08:57:36;6.50;;;4.80;;
7233;SDS011;3658;47.992;10.158;2023-07-24T09:00:03;6.17;;;4.50;;
7233;SDS011;3658;47.992;10.158;2023-07-24T09:02:31;8.77;;;4.83;;
7233;SDS011;3658;47.992;10.158;2023-07-24T09:04:59;6.37;;;4.20;;
7233;SDS011;3658;47.992;10.158;2023-07-24T09:07:26;6.80;;;4.50;;
7233;SDS011;3658;47.992;10.158;2023-07-24T09:09:54;5.17;;;4.23;;
7233;SDS011;3658;47.992;10.158;2023-07-24T09:12:21;5.07;;;4.07;;
7233;SDS011;3658;47.992;10.158;2023-07-24T09:14:59;5.97;;;4.20;;
7233;SDS011;3658;47.992;10.158;2023-07-24T09:17:26;5.77;;;4.07;;
7233;SDS011;3658;47.992;10.158;2023-07-24T09:19:55;4.83;;;4.03;;
7233;SDS011;3658;47.992;10.158;2023-07-24T09:22:22;6.13;;;4.40;;
7233;SDS011;3658;47.992;10.158;2023-07-24T09:24:51;7.00;;;4.17;;
7233;SDS011;3658;47.992;10.158;2023-07-24T09:27:21;5.13;;;4.07;;
7233;SDS011;3658;47.992;10.158;2023-07-24T09:29:51;4.83;;;3.53;;
7233;SDS011;3658;47.992;10.158;2023-07-24T09:32:18;5.43;;;3.83;;
7233;SDS011;3658;47.992;10.158;2023-07-24T09:34:46;7.13;;;4.10;;
7233;SDS011;3658;47.992;10.158;2023-07-24T09:37:22;5.33;;;3.90;;
7233;SDS011;3658;47.992;10.158;2023-07-24T09:39:50;7.07;;;4.23;;
7233;SDS011;3658;47.992;10.158;2023-07-24T09:42:17;7.13;;;4.33;;
7233;SDS011;3658;47.992;10.158;2023-07-24T09:44:45;4.77;;;3.67;;
7233;SDS011;3658;47.992;10.158;2023-07-24T09:47:12;5.57;;;3.93;;
7233;SDS011;3658;47.992;10.158;2023-07-24T09:49:38;5.37;;;4.30;;
7233;SDS011;3658;47.992;10.158;2023-07-24T09:52:06;5.13;;;4.00;;
7233;SDS011;3658;47.992;10.158;2023-07-24T09:54:37;4.57;;;4.03;;
7233;SDS011;3658;47.992;10.158;2023-07-24T09:57:10;5.47;;;4.43;;
7233;SDS011;3658;47.992;10.158;2023-07-24T09:59:39;5.77;;;3.80;;
7233;SDS011;3658;47.992;10.158;2023-07-24T10:02:09;4.40;;;3.87;;
7233;SDS011;3658;47.992;10.158;2023-07-24T10:04:37;4.20;;;3.50;;
7233;SDS011;3658;47.992;10.158;2023-07-24T10:07:05;5.70;;;3.57;;
7233;SDS011;3658;47.992;10.158;2023-07-24T10:09:33;5.57;;;4.00;;
7233;SDS011;3658;47.992;10.158;2023-07-24T10:11:59;4.17;;;3.53;;
7233;SDS011;3658;47.992;10.158;2023-07-24T10:14:27;6.60;;;3.37;;
7233;SDS011;3658;47.992;10.158;2023-07-24T10:16:55;6.53;;;3.40;;
7233;SDS011;3658;47.992;10.158;2023-07-24T10:19:24;8.83;;;3.70;;
7233;SDS011;3658;47.992;10.158;2023-07-24T10:22:01;4.53;;;3.57;;
7233;SDS011;3658;47.992;10.158;2023-07-24T10:24:28;7.03;;;3.67;;
7233;SDS011;3658;47.992;10.158;2023-07-24T10:26:56;5.80;;;3.80;;
7233;SDS011;3658;47.992;10.158;2023-07-24T10:29:23;8.07;;;3.63;;
7233;SDS011;3658;47.992;10.158;2023-07-24T10:31:53;4.73;;;3.80;;
7233;SDS011;3658;47.992;10.158;2023-07-24T10:34:20;5.60;;;3.50;;
7233;SDS011;3658;47.992;10.158;2023-07-24T10:36:49;6.80;;;3.80;;
7233;SDS011;3658;47.992;10.158;2023-07-24T10:39:16;5.13;;;3.67;;
7233;SDS011;3658;47.992;10.158;2023-07-24T10:41:45;6.80;;;3.90;;
7233;SDS011;3658;47.992;10.158;2023-07-24T10:44:12;7.17;;;3.80;;
7233;SDS011;3658;47.992;10.158;2023-07-24T10:46:39;4.43;;;3.43;;
7233;SDS011;3658;47.992;10.158;2023-07-24T10:49:07;5.40;;;3.57;;
7233;SDS011;3658;47.992;10.158;2023-07-24T10:51:35;5.40;;;3.40;;
7233;SDS011;3658;47.992;10.158;2023-07-24T10:54:04;5.10;;;3.43;;
7233;SDS011;3658;47.992;10.158;2023-07-24T10:56:31;3.60;;;3.10;;
7233;SDS011;3658;47.992;10.158;2023-07-24T10:59:02;4.10;;;3.37;;
7233;SDS011;3658;47.992;10.158;2023-07-24T11:01:29;6.07;;;3.63;;
7233;SDS011;3658;47.992;10.158;2023-07-24T11:03:57;5.87;;;3.97;;
7233;SDS011;3658;47.992;10.158;2023-07-24T11:06:24;5.43;;;3.43;;
7233;SDS011;3658;47.992;10.158;2023-07-24T11:08:51;4.97;;;3.50;;
7233;SDS011;3658;47.992;10.158;2023-07-24T11:11:22;6.00;;;3.47;;
7233;SDS011;3658;47.992;10.158;2023-07-24T11:13:54;3.77;;;3.23;;
7233;SDS011;3658;47.992;10.158;2023-07-24T11:16:21;5.00;;;3.70;;
7233;SDS011;3658;47.992;10.158;2023-07-24T11:18:49;4.30;;;3.27;;
7233;SDS011;3658;47.992;10.158;2023-07-24T11:21:17;4.87;;;3.67;;
7233;SDS011;3658;47.992;10.158;2023-07-24T11:23:45;5.33;;;4.07;;
7233;SDS011;3658;47.992;10.158;2023-07-24T11:26:13;6.77;;;4.57;;
7233;SDS011;3658;47.992;10.158;2023-07-24T11:28:41;7.60;;;4.83;;
7233;SDS011;3658;47.992;10.158;2023-07-24T11:31:08;7.97;;;4.63;;
7233;SDS011;3658;47.992;10.158;2023-07-24T11:33:36;7.90;;;4.70;;
7233;SDS011;3658;47.992;10.158;2023-07-24T11:36:04;9.53;;;5.03;;
7233;SDS011;3658;47.992;10.158;2023-07-24T11:38:31;9.13;;;5.70;;
7233;SDS011;3658;47.992;10.158;2023-07-24T11:40:57;9.53;;;6.30;;
7233;SDS011;3658;47.992;10.158;2023-07-24T11:43:25;10.03;;;6.90;;
7233;SDS011;3658;47.992;10.158;2023-07-24T11:45:53;8.70;;;6.40;;
7233;SDS011;3658;47.992;10.158;2023-07-24T11:48:20;6.50;;;5.77;;
7233;SDS011;3658;47.992;10.158;2023-07-24T11:50:49;7.20;;;5.50;;
7233;SDS011;3658;47.992;10.158;2023-07-24T11:53:21;8.97;;;5.23;;
7233;SDS011;3658;47.992;10.158;2023-07-24T11:55:48;7.53;;;5.40;;
7233;SDS011;3658;47.992;10.158;2023-07-24T11:58:16;7.43;;;5.23;;
7233;SDS011;3658;47.992;10.158;2023-07-24T12:00:45;8.83;;;5.17;;
7233;SDS011;3658;47.992;10.158;2023-07-24T12:03:13;9.27;;;5.20;;
7233;SDS011;3658;47.992;10.158;2023-07-24T12:05:41;8.37;;;5.57;;
7233;SDS011;3658;47.992;10.158;2023-07-24T12:08:09;6.00;;;4.83;;
7233;SDS011;3658;47.992;10.158;2023-07-24T12:10:36;6.50;;;4.87;;
7233;SDS011;3658;47.992;10.158;2023-07-24T12:13:04;5.83;;;4.57;;
7233;SDS011;3658;47.992;10.158;2023-07-24T12:15:32;6.87;;;4.50;;
7233;SDS011;3658;47.992;10.158;2023-07-24T12:18:00;9.40;;;4.60;;
7233;SDS011;3658;47.992;10.158;2023-07-24T12:20:29;9.83;;;5.00;;
7233;SDS011;3658;47.992;10.158;2023-07-24T12:22:56;9.47;;;5.10;;
7233;SDS011;3658;47.992;10.158;2023-07-24T12:25:23;6.40;;;4.80;;
7233;SDS011;3658;47.992;10.158;2023-07-24T12:27:50;5.37;;;4.33;;
7233;SDS011;3658;47.992;10.158;2023-07-24T12:30:17;7.33;;;4.17;;
7233;SDS011;3658;47.992;10.158;2023-07-24T12:32:44;8.63;;;4.27;;
7233;SDS011;3658;47.992;10.158;2023-07-24T12:35:11;6.00;;;4.27;;
7233;SDS011;3658;47.992;10.158;2023-07-24T12:37:39;7.10;;;4.00;;
7233;SDS011;3658;47.992;10.158;2023-07-24T12:40:07;5.87;;;4.10;;
7233;SDS011;3658;47.992;10.158;2023-07-24T12:42:35;5.87;;;4.57;;
7233;SDS011;3658;47.992;10.158;2023-07-24T12:45:02;4.97;;;3.73;;
7233;SDS011;3658;47.992;10.158;2023-07-24T12:47:32;5.07;;;3.73;;
7233;SDS011;3658;47.992;10.158;2023-07-24T12:49:59;5.97;;;3.53;;
7233;SDS011;3658;47.992;10.158;2023-07-24T12:52:28;4.10;;;3.30;;
7233;SDS011;3658;47.992;10.158;2023-07-24T12:54:56;5.77;;;3.70;;
7233;SDS011;3658;47.992;10.158;2023-07-24T12:57:23;8.00;;;5.60;;
7233;SDS011;3658;47.992;10.158;2023-07-24T12:59:51;10.53;;;7.90;;
7233;SDS011;3658;47.992;10.158;2023-07-24T13:02:18;9.50;;;4.40;;
7233;SDS011;3658;47.992;10.158;2023-07-24T13:04:45;4.50;;;3.53;;
7233;SDS011;3658;47.992;10.158;2023-07-24T13:07:11;5.17;;;3.40;;
7233;SDS011;3658;47.992;10.158;2023-07-24T13:09:38;3.37;;;2.77;;
7233;SDS011;3658;47.992;10.158;2023-07-24T13:12:07;5.03;;;3.50;;
7233;SDS011;3658;47.992;10.158;2023-07-24T13:14:35;3.77;;;3.00;;
7233;SDS011;3658;47.992;10.158;2023-07-24T13:17:01;4.93;;;2.97;;
7233;SDS011;3658;47.992;10.158;2023-07-24T13:19:28;4.30;;;3.00;;
7233;SDS011;3658;47.992;10.158;2023-07-24T13:21:55;3.90;;;2.93;;
7233;SDS011;3658;47.992;10.158;2023-07-24T13:24:22;4.47;;;3.80;;
7233;SDS011;3658;47.992;10.158;2023-07-24T13:26:49;4.10;;;3.23;;
7233;SDS011;3658;47.992;10.158;2023-07-24T13:29:17;3.43;;;2.80;;
7233;SDS011;3658;47.992;10.158;2023-07-24T13:31:44;4.03;;;2.70;;
7233;SDS011;3658;47.992;10.158;2023-07-24T13:34:10;3.40;;;2.30;;
7233;SDS011;3658;47.992;10.158;2023-07-24T13:36:37;3.30;;;2.43;;
7233;SDS011;3658;47.992;10.158;2023-07-24T13:39:04;3.20;;;2.30;;
7233;SDS011;3658;47.992;10.158;2023-07-24T13:41:31;4.10;;;2.30;;
7233;SDS011;3658;47.992;10.158;2023-07-24T13:43:58;3.20;;;2.10;;
7233;SDS011;3658;47.992;10.158;2023-07-24T13:46:26;7.27;;;2.50;;
7233;SDS011;3658;47.992;10.158;2023-07-24T13:48:53;5.10;;;2.10;;
7233;SDS011;3658;47.992;10.158;2023-07-24T13:51:20;10.20;;;3.17;;
7233;SDS011;3658;47.992;10.158;2023-07-24T13:53:47;9.23;;;2.57;;
7233;SDS011;3658;47.992;10.158;2023-07-24T13:56:16;10.97;;;3.10;;
7233;SDS011;3658;47.992;10.158;2023-07-24T13:58:43;16.60;;;3.37;;
7233;SDS011;3658;47.992;10.158;2023-07-24T14:01:10;17.67;;;3.87;;
7233;SDS011;3658;47.992;10.158;2023-07-24T14:03:38;11.00;;;3.37;;
7233;SDS011;3658;47.992;10.158;2023-07-24T14:06:05;8.97;;;3.73;;
7233;SDS011;3658;47.992;10.158;2023-07-24T14:08:31;6.90;;;3.00;;
7233;SDS011;3658;47.992;10.158;2023-07-24T14:10:58;14.00;;;2.93;;
7233;SDS011;3658;47.992;10.158;2023-07-24T14:13:25;9.07;;;2.90;;
7233;SDS011;3658;47.992;10.158;2023-07-24T14:15:52;7.70;;;2.90;;
7233;SDS011;3658;47.992;10.158;2023-07-24T14:18:19;7.67;;;2.87;;
7233;SDS011;3658;47.992;10.158;2023-07-24T14:20:48;6.13;;;2.83;;
7233;SDS011;3658;47.992;10.158;2023-07-24T14:23:15;9.47;;;3.17;;
7233;SDS011;3658;47.992;10.158;2023-07-24T14:25:42;6.03;;;2.73;;
7233;SDS011;3658;47.992;10.158;2023-07-24T14:28:09;9.33;;;2.60;;
7233;SDS011;3658;47.992;10.158;2023-07-24T14:30:35;7.00;;;2.80;;
7233;SDS011;3658;47.992;10.158;2023-07-24T14:33:02;7.20;;;3.17;;
7233;SDS011;3658;47.992;10.158;2023-07-24T14:35:29;6.73;;;2.97;;
7233;SDS011;3658;47.992;10.158;2023-07-24T14:37:57;7.13;;;3.07;;
7233;SDS011;3658;47.992;10.158;2023-07-24T14:40:24;7.93;;;3.17;;
7233;SDS011;3658;47.992;10.158;2023-07-24T14:42:51;5.07;;;2.87;;
7233;SDS011;3658;47.992;10.158;2023-07-24T14:45:17;6.43;;;2.83;;
7233;SDS011;3658;47.992;10.158;2023-07-24T14:47:44;7.60;;;3.07;;
7233;SDS011;3658;47.992;10.158;2023-07-24T14:50:11;7.30;;;3.10;;
7233;SDS011;3658;47.992;10.158;2023-07-24T14:52:38;4.17;;;2.50;;
7233;SDS011;3658;47.992;10.158;2023-07-24T14:55:06;7.40;;;3.00;;
7233;SDS011;3658;47.992;10.158;2023-07-24T14:57:33;4.97;;;2.80;;
7233;SDS011;3658;47.992;10.158;2023-07-24T15:00:01;6.23;;;2.73;;
7233;SDS011;3658;47.992;10.158;2023-07-24T15:02:28;5.13;;;3.00;;
7233;SDS011;3658;47.992;10.158;2023-07-24T15:04:57;3.23;;;2.60;;